Terminal Aerodrome Forecast
Issued by NWS

Home | Current Version | Previous Version | Text Only | Print | Product List | Glossary On
Versions: 1 2 3 4 5 6 7 8 9 10 11 12 13 14 15 16 17
000
FTUS45 KABQ 171400 AAB
TAFLVS
TAF AMD
KLVS 171426Z 1714/1812 07010KT P6SM SCT025 OVC040
      TEMPO 1714/1717 BKN020
     FM171800 05009KT P6SM FEW025 BKN050
     FM171930 16010KT P6SM SCT060
     FM172100 19012G20KT P6SM SCT100
     FM180300 18008KT P6SM FEW200=

USA.gov is the U.S. government's official web portal to all federal, state and local government web resources and services.